sensor_id;sensor_type;location;lat;lon;timestamp;temperature;humidity
52321;DHT22;38261;54.090;13.382;2023-02-23T00:01:35;5.00;99.90
52321;DHT22;38261;54.090;13.382;2023-02-23T00:02:59;5.00;99.90
52321;DHT22;38261;54.090;13.382;2023-02-23T00:04:23;5.00;99.90
52321;DHT22;38261;54.090;13.382;2023-02-23T00:05:45;5.00;99.90
52321;DHT22;38261;54.090;13.382;2023-02-23T00:07:07;4.90;99.90
52321;DHT22;38261;54.090;13.382;2023-02-23T00:08:30;4.90;99.90
52321;DHT22;38261;54.090;13.382;2023-02-23T00:09:56;4.90;99.90
52321;DHT22;38261;54.090;13.382;2023-02-23T00:11:19;4.90;99.90
52321;DHT22;38261;54.090;13.382;2023-02-23T00:12:42;4.90;99.90
52321;DHT22;38261;54.090;13.382;2023-02-23T00:14:04;4.80;99.90
52321;DHT22;38261;54.090;13.382;2023-02-23T00:15:27;4.80;99.90
52321;DHT22;38261;54.090;13.382;2023-02-23T00:16:50;4.80;99.90
52321;DHT22;38261;54.090;13.382;2023-02-23T00:18:12;4.80;99.90
52321;DHT22;38261;54.090;13.382;2023-02-23T00:19:35;4.70;99.90
52321;DHT22;38261;54.090;13.382;2023-02-23T00:20:58;4.70;99.90
52321;DHT22;38261;54.090;13.382;2023-02-23T00:22:20;4.70;99.90
52321;DHT22;38261;54.090;13.382;2023-02-23T00:23:47;4.70;99.90
52321;DHT22;38261;54.090;13.382;2023-02-23T00:25:10;4.70;99.90
52321;DHT22;38261;54.090;13.382;2023-02-23T00:26:38;4.70;99.90
52321;DHT22;38261;54.090;13.382;2023-02-23T00:28:00;4.70;99.90
52321;DHT22;38261;54.090;13.382;2023-02-23T00:29:23;4.70;99.90
52321;DHT22;38261;54.090;13.382;2023-02-23T00:30:45;4.70;99.90
52321;DHT22;38261;54.090;13.382;2023-02-23T00:32:07;4.70;99.90
52321;DHT22;38261;54.090;13.382;2023-02-23T00:33:30;4.70;99.90
52321;DHT22;38261;54.090;13.382;2023-02-23T00:34:52;4.70;99.90
52321;DHT22;38261;54.090;13.382;2023-02-23T00:36:14;4.60;99.90
52321;DHT22;38261;54.090;13.382;2023-02-23T00:37:36;4.60;99.90
52321;DHT22;38261;54.090;13.382;2023-02-23T00:39:07;4.60;99.90
52321;DHT22;38261;54.090;13.382;2023-02-23T00:40:39;4.50;99.90
52321;DHT22;38261;54.090;13.382;2023-02-23T00:42:02;4.60;99.90
52321;DHT22;38261;54.090;13.382;2023-02-23T00:43:24;4.50;99.90
52321;DHT22;38261;54.090;13.382;2023-02-23T00:44:49;4.50;99.90
52321;DHT22;38261;54.090;13.382;2023-02-23T00:46:18;4.50;99.90
52321;DHT22;38261;54.090;13.382;2023-02-23T00:47:43;4.50;99.90
52321;DHT22;38261;54.090;13.382;2023-02-23T00:49:05;4.50;99.90
52321;DHT22;38261;54.090;13.382;2023-02-23T00:50:28;4.50;99.90
52321;DHT22;38261;54.090;13.382;2023-02-23T00:51:51;4.50;99.90
52321;DHT22;38261;54.090;13.382;2023-02-23T00:53:13;4.50;99.90
52321;DHT22;38261;54.090;13.382;2023-02-23T00:54:36;4.40;99.90
52321;DHT22;38261;54.090;13.382;2023-02-23T00:55:58;4.40;99.90
52321;DHT22;38261;54.090;13.382;2023-02-23T00:57:21;4.40;99.90
52321;DHT22;38261;54.090;13.382;2023-02-23T00:58:44;4.40;99.90
52321;DHT22;38261;54.090;13.382;2023-02-23T01:00:09;4.40;99.90
52321;DHT22;38261;54.090;13.382;2023-02-23T01:01:41;4.40;99.90
52321;DHT22;38261;54.090;13.382;2023-02-23T01:03:04;4.40;99.90
52321;DHT22;38261;54.090;13.382;2023-02-23T01:04:26;4.40;99.90
52321;DHT22;38261;54.090;13.382;2023-02-23T01:05:48;4.40;99.90
52321;DHT22;38261;54.090;13.382;2023-02-23T01:07:11;4.30;99.90
52321;DHT22;38261;54.090;13.382;2023-02-23T01:08:35;4.30;99.90
52321;DHT22;38261;54.090;13.382;2023-02-23T01:09:58;4.30;99.90
52321;DHT22;38261;54.090;13.382;2023-02-23T01:11:23;4.30;99.90
52321;DHT22;38261;54.090;13.382;2023-02-23T01:12:49;4.30;99.90
52321;DHT22;38261;54.090;13.382;2023-02-23T01:14:12;4.30;99.90
52321;DHT22;38261;54.090;13.382;2023-02-23T01:15:39;4.30;99.90
52321;DHT22;38261;54.090;13.382;2023-02-23T01:17:02;4.20;99.90
52321;DHT22;38261;54.090;13.382;2023-02-23T01:18:24;4.20;99.90
52321;DHT22;38261;54.090;13.382;2023-02-23T01:19:46;4.20;99.90
52321;DHT22;38261;54.090;13.382;2023-02-23T01:21:22;4.20;99.90
52321;DHT22;38261;54.090;13.382;2023-02-23T01:22:48;4.20;99.90
52321;DHT22;38261;54.090;13.382;2023-02-23T01:24:11;4.10;99.90
52321;DHT22;38261;54.090;13.382;2023-02-23T01:25:34;4.10;99.90
52321;DHT22;38261;54.090;13.382;2023-02-23T01:26:56;4.10;99.90
52321;DHT22;38261;54.090;13.382;2023-02-23T01:28:18;4.10;99.90
52321;DHT22;38261;54.090;13.382;2023-02-23T01:29:40;4.10;99.90
52321;DHT22;38261;54.090;13.382;2023-02-23T01:31:07;4.10;99.90
52321;DHT22;38261;54.090;13.382;2023-02-23T01:32:30;4.00;99.90
52321;DHT22;38261;54.090;13.382;2023-02-23T01:33:59;4.00;99.90
52321;DHT22;38261;54.090;13.382;2023-02-23T01:35:22;4.00;99.90
52321;DHT22;38261;54.090;13.382;2023-02-23T01:36:44;4.00;99.90
52321;DHT22;38261;54.090;13.382;2023-02-23T01:38:06;4.00;99.90
52321;DHT22;38261;54.090;13.382;2023-02-23T01:39:28;4.00;99.90
52321;DHT22;38261;54.090;13.382;2023-02-23T01:40:50;4.00;99.90
52321;DHT22;38261;54.090;13.382;2023-02-23T01:42:13;4.00;99.90
52321;DHT22;38261;54.090;13.382;2023-02-23T01:45:43;4.00;99.90
52321;DHT22;38261;54.090;13.382;2023-02-23T01:47:06;3.90;99.90
52321;DHT22;38261;54.090;13.382;2023-02-23T01:48:36;3.90;99.90
52321;DHT22;38261;54.090;13.382;2023-02-23T01:49:59;3.90;99.90
52321;DHT22;38261;54.090;13.382;2023-02-23T01:51:30;3.90;99.90
52321;DHT22;38261;54.090;13.382;2023-02-23T01:52:54;3.90;99.90
52321;DHT22;38261;54.090;13.382;2023-02-23T01:54:20;3.90;99.90
52321;DHT22;38261;54.090;13.382;2023-02-23T01:55:46;3.90;99.90
52321;DHT22;38261;54.090;13.382;2023-02-23T01:57:12;3.90;99.90
52321;DHT22;38261;54.090;13.382;2023-02-23T01:58:35;3.90;99.90
52321;DHT22;38261;54.090;13.382;2023-02-23T02:00:00;3.80;99.90
52321;DHT22;38261;54.090;13.382;2023-02-23T02:01:22;3.90;99.90
52321;DHT22;38261;54.090;13.382;2023-02-23T02:02:45;3.90;99.90
52321;DHT22;38261;54.090;13.382;2023-02-23T02:04:10;3.80;99.90
52321;DHT22;38261;54.090;13.382;2023-02-23T02:05:37;3.80;99.90
52321;DHT22;38261;54.090;13.382;2023-02-23T02:07:00;3.80;99.90
52321;DHT22;38261;54.090;13.382;2023-02-23T02:08:25;3.80;99.90
52321;DHT22;38261;54.090;13.382;2023-02-23T02:09:51;3.80;99.90
52321;DHT22;38261;54.090;13.382;2023-02-23T02:11:33;3.80;99.90
52321;DHT22;38261;54.090;13.382;2023-02-23T02:13:00;3.70;99.90
52321;DHT22;38261;54.090;13.382;2023-02-23T02:14:28;3.70;99.90
52321;DHT22;38261;54.090;13.382;2023-02-23T02:17:30;3.70;99.90
52321;DHT22;38261;54.090;13.382;2023-02-23T02:24:29;3.70;99.90
52321;DHT22;38261;54.090;13.382;2023-02-23T02:26:08;3.70;99.90
52321;DHT22;38261;54.090;13.382;2023-02-23T02:45:14;3.50;99.90
52321;DHT22;38261;54.090;13.382;2023-02-23T02:46:40;3.50;99.90
52321;DHT22;38261;54.090;13.382;2023-02-23T02:48:23;3.50;99.90
52321;DHT22;38261;54.090;13.382;2023-02-23T02:53:01;3.50;99.90
52321;DHT22;38261;54.090;13.382;2023-02-23T02:54:39;3.50;99.90
52321;DHT22;38261;54.090;13.382;2023-02-23T02:56:02;3.50;99.90
52321;DHT22;38261;54.090;13.382;2023-02-23T02:57:27;3.50;99.90
52321;DHT22;38261;54.090;13.382;2023-02-23T02:58:52;3.40;99.90
52321;DHT22;38261;54.090;13.382;2023-02-23T03:00:27;3.40;99.90
52321;DHT22;38261;54.090;13.382;2023-02-23T03:02:18;3.40;99.90
52321;DHT22;38261;54.090;13.382;2023-02-23T03:04:03;3.40;99.90
52321;DHT22;38261;54.090;13.382;2023-02-23T03:05:57;3.40;99.90
52321;DHT22;38261;54.090;13.382;2023-02-23T03:11:39;3.40;99.90
52321;DHT22;38261;54.090;13.382;2023-02-23T03:13:54;3.40;99.90
52321;DHT22;38261;54.090;13.382;2023-02-23T03:15:59;3.40;99.90
52321;DHT22;38261;54.090;13.382;2023-02-23T03:17:42;3.40;99.90
52321;DHT22;38261;54.090;13.382;2023-02-23T03:19:41;3.40;99.90
52321;DHT22;38261;54.090;13.382;2023-02-23T03:23:22;3.40;99.90
52321;DHT22;38261;54.090;13.382;2023-02-23T03:25:13;3.40;99.90
52321;DHT22;38261;54.090;13.382;2023-02-23T03:27:00;3.40;99.90
52321;DHT22;38261;54.090;13.382;2023-02-23T03:29:06;3.40;99.90
52321;DHT22;38261;54.090;13.382;2023-02-23T03:30:58;3.40;99.90
52321;DHT22;38261;54.090;13.382;2023-02-23T03:33:19;3.40;99.90
52321;DHT22;38261;54.090;13.382;2023-02-23T03:35:15;3.40;99.90
52321;DHT22;38261;54.090;13.382;2023-02-23T03:37:16;3.40;99.90
52321;DHT22;38261;54.090;13.382;2023-02-23T03:39:43;3.40;99.90
52321;DHT22;38261;54.090;13.382;2023-02-23T03:41:04;3.40;99.90
52321;DHT22;38261;54.090;13.382;2023-02-23T03:42:49;3.30;99.90
52321;DHT22;38261;54.090;13.382;2023-02-23T03:44:41;3.40;99.90
52321;DHT22;38261;54.090;13.382;2023-02-23T03:46:23;3.30;99.90
52321;DHT22;38261;54.090;13.382;2023-02-23T03:48:08;3.30;99.90
52321;DHT22;38261;54.090;13.382;2023-02-23T03:49:50;3.30;99.90
52321;DHT22;38261;54.090;13.382;2023-02-23T03:51:34;3.30;99.90
52321;DHT22;38261;54.090;13.382;2023-02-23T03:53:18;3.30;99.90
52321;DHT22;38261;54.090;13.382;2023-02-23T03:55:11;3.30;99.90
52321;DHT22;38261;54.090;13.382;2023-02-23T03:56:56;3.30;99.90
52321;DHT22;38261;54.090;13.382;2023-02-23T03:58:49;3.30;99.90
52321;DHT22;38261;54.090;13.382;2023-02-23T04:00:35;3.30;99.90
52321;DHT22;38261;54.090;13.382;2023-02-23T04:02:19;3.20;99.90
52321;DHT22;38261;54.090;13.382;2023-02-23T04:04:02;3.20;99.90
52321;DHT22;38261;54.090;13.382;2023-02-23T04:05:44;3.20;99.90
52321;DHT22;38261;54.090;13.382;2023-02-23T04:07:25;3.20;99.90
52321;DHT22;38261;54.090;13.382;2023-02-23T04:09:07;3.20;99.90
52321;DHT22;38261;54.090;13.382;2023-02-23T04:11:01;3.20;99.90
52321;DHT22;38261;54.090;13.382;2023-02-23T04:13:01;3.20;99.90
52321;DHT22;38261;54.090;13.382;2023-02-23T04:14:40;3.20;99.90
52321;DHT22;38261;54.090;13.382;2023-02-23T04:16:06;3.20;99.90
52321;DHT22;38261;54.090;13.382;2023-02-23T04:17:29;3.20;99.90
52321;DHT22;38261;54.090;13.382;2023-02-23T04:18:52;3.20;99.90
52321;DHT22;38261;54.090;13.382;2023-02-23T04:20:15;3.20;99.90
52321;DHT22;38261;54.090;13.382;2023-02-23T04:21:37;3.20;99.90
52321;DHT22;38261;54.090;13.382;2023-02-23T04:22:59;3.20;99.90
52321;DHT22;38261;54.090;13.382;2023-02-23T04:24:21;3.20;99.90
52321;DHT22;38261;54.090;13.382;2023-02-23T04:25:44;3.20;99.90
52321;DHT22;38261;54.090;13.382;2023-02-23T04:27:06;3.20;99.90
52321;DHT22;38261;54.090;13.382;2023-02-23T04:28:28;3.20;99.90
52321;DHT22;38261;54.090;13.382;2023-02-23T04:29:50;3.20;99.90
52321;DHT22;38261;54.090;13.382;2023-02-23T04:31:19;3.10;99.90
52321;DHT22;38261;54.090;13.382;2023-02-23T04:33:00;3.10;99.90
52321;DHT22;38261;54.090;13.382;2023-02-23T04:34:22;3.10;99.90
52321;DHT22;38261;54.090;13.382;2023-02-23T04:35:44;3.10;99.90
52321;DHT22;38261;54.090;13.382;2023-02-23T04:37:06;3.10;99.90
52321;DHT22;38261;54.090;13.382;2023-02-23T04:38:28;3.10;99.90
52321;DHT22;38261;54.090;13.382;2023-02-23T04:39:50;3.10;99.90
52321;DHT22;38261;54.090;13.382;2023-02-23T04:41:12;3.10;99.90
52321;DHT22;38261;54.090;13.382;2023-02-23T04:42:36;3.10;99.90
52321;DHT22;38261;54.090;13.382;2023-02-23T04:43:59;3.10;99.90
52321;DHT22;38261;54.090;13.382;2023-02-23T04:45:22;3.10;99.90
52321;DHT22;38261;54.090;13.382;2023-02-23T04:46:44;3.10;99.90
52321;DHT22;38261;54.090;13.382;2023-02-23T04:48:07;3.10;99.90
52321;DHT22;38261;54.090;13.382;2023-02-23T04:49:29;3.10;99.90
52321;DHT22;38261;54.090;13.382;2023-02-23T04:50:52;3.10;99.90
52321;DHT22;38261;54.090;13.382;2023-02-23T04:52:15;3.10;99.90
52321;DHT22;38261;54.090;13.382;2023-02-23T04:53:37;3.10;99.90
52321;DHT22;38261;54.090;13.382;2023-02-23T04:55:00;3.10;99.90
52321;DHT22;38261;54.090;13.382;2023-02-23T04:56:22;3.10;99.90
52321;DHT22;38261;54.090;13.382;2023-02-23T04:57:46;3.10;99.90
52321;DHT22;38261;54.090;13.382;2023-02-23T04:59:08;3.10;99.90
52321;DHT22;38261;54.090;13.382;2023-02-23T05:00:30;3.10;99.90
52321;DHT22;38261;54.090;13.382;2023-02-23T05:01:54;3.10;99.90
52321;DHT22;38261;54.090;13.382;2023-02-23T05:03:16;3.00;99.90
52321;DHT22;38261;54.090;13.382;2023-02-23T05:04:38;3.00;99.90
52321;DHT22;38261;54.090;13.382;2023-02-23T05:06:01;2.90;99.90
52321;DHT22;38261;54.090;13.382;2023-02-23T05:07:23;2.90;99.90
52321;DHT22;38261;54.090;13.382;2023-02-23T05:08:45;2.90;99.90
52321;DHT22;38261;54.090;13.382;2023-02-23T05:10:08;2.90;99.90
52321;DHT22;38261;54.090;13.382;2023-02-23T05:11:30;2.90;99.90
52321;DHT22;38261;54.090;13.382;2023-02-23T05:12:52;2.90;99.90
52321;DHT22;38261;54.090;13.382;2023-02-23T05:14:14;2.80;99.90
52321;DHT22;38261;54.090;13.382;2023-02-23T05:15:36;2.80;99.90
52321;DHT22;38261;54.090;13.382;2023-02-23T05:16:59;2.80;99.90
52321;DHT22;38261;54.090;13.382;2023-02-23T05:18:21;2.90;99.90
52321;DHT22;38261;54.090;13.382;2023-02-23T05:19:43;2.80;99.90
52321;DHT22;38261;54.090;13.382;2023-02-23T05:21:07;2.80;99.90
52321;DHT22;38261;54.090;13.382;2023-02-23T05:22:29;2.90;99.90
52321;DHT22;38261;54.090;13.382;2023-02-23T05:23:51;2.90;99.90
52321;DHT22;38261;54.090;13.382;2023-02-23T05:25:13;2.90;99.90
52321;DHT22;38261;54.090;13.382;2023-02-23T05:26:36;2.90;99.90
52321;DHT22;38261;54.090;13.382;2023-02-23T05:27:58;2.80;99.90
52321;DHT22;38261;54.090;13.382;2023-02-23T05:29:20;2.80;99.90
52321;DHT22;38261;54.090;13.382;2023-02-23T05:30:42;2.80;99.90
52321;DHT22;38261;54.090;13.382;2023-02-23T05:32:04;2.80;99.90
52321;DHT22;38261;54.090;13.382;2023-02-23T05:33:27;2.80;99.90
52321;DHT22;38261;54.090;13.382;2023-02-23T05:34:49;2.80;99.90
52321;DHT22;38261;54.090;13.382;2023-02-23T05:36:14;2.80;99.90
52321;DHT22;38261;54.090;13.382;2023-02-23T05:37:37;2.80;99.90
52321;DHT22;38261;54.090;13.382;2023-02-23T05:38:59;2.80;99.90
52321;DHT22;38261;54.090;13.382;2023-02-23T05:40:21;2.80;99.90
52321;DHT22;38261;54.090;13.382;2023-02-23T05:41:43;2.80;99.90
52321;DHT22;38261;54.090;13.382;2023-02-23T05:43:05;2.80;99.90
52321;DHT22;38261;54.090;13.382;2023-02-23T05:44:28;2.80;99.90
52321;DHT22;38261;54.090;13.382;2023-02-23T05:45:50;2.80;99.90
52321;DHT22;38261;54.090;13.382;2023-02-23T05:47:12;2.80;99.90
52321;DHT22;38261;54.090;13.382;2023-02-23T05:48:34;2.80;99.90
52321;DHT22;38261;54.090;13.382;2023-02-23T05:49:56;2.70;99.90
52321;DHT22;38261;54.090;13.382;2023-02-23T05:51:19;2.80;99.90
52321;DHT22;38261;54.090;13.382;2023-02-23T05:52:42;2.80;99.90
52321;DHT22;38261;54.090;13.382;2023-02-23T05:54:04;2.80;99.90
52321;DHT22;38261;54.090;13.382;2023-02-23T05:55:26;2.80;99.90
52321;DHT22;38261;54.090;13.382;2023-02-23T05:56:49;2.80;99.90
52321;DHT22;38261;54.090;13.382;2023-02-23T05:58:11;2.80;99.90
52321;DHT22;38261;54.090;13.382;2023-02-23T05:59:33;2.80;99.90
52321;DHT22;38261;54.090;13.382;2023-02-23T06:00:56;2.80;99.90
52321;DHT22;38261;54.090;13.382;2023-02-23T06:02:18;2.80;99.90
52321;DHT22;38261;54.090;13.382;2023-02-23T06:03:40;2.80;99.90
52321;DHT22;38261;54.090;13.382;2023-02-23T06:05:02;2.80;99.90
52321;DHT22;38261;54.090;13.382;2023-02-23T06:06:25;2.80;99.90
52321;DHT22;38261;54.090;13.382;2023-02-23T06:07:47;2.80;99.90
52321;DHT22;38261;54.090;13.382;2023-02-23T06:09:09;2.80;99.90
52321;DHT22;38261;54.090;13.382;2023-02-23T06:10:31;2.80;99.90
52321;DHT22;38261;54.090;13.382;2023-02-23T06:11:53;2.90;99.90
52321;DHT22;38261;54.090;13.382;2023-02-23T06:13:16;2.90;99.90
52321;DHT22;38261;54.090;13.382;2023-02-23T06:14:38;2.90;99.90
52321;DHT22;38261;54.090;13.382;2023-02-23T06:16:01;2.90;99.90
52321;DHT22;38261;54.090;13.382;2023-02-23T06:17:23;3.00;99.90
52321;DHT22;38261;54.090;13.382;2023-02-23T06:18:46;3.00;99.90
52321;DHT22;38261;54.090;13.382;2023-02-23T06:20:08;3.10;99.90
52321;DHT22;38261;54.090;13.382;2023-02-23T06:21:31;3.10;99.90
52321;DHT22;38261;54.090;13.382;2023-02-23T06:22:53;3.10;99.90
52321;DHT22;38261;54.090;13.382;2023-02-23T06:24:15;3.10;99.90
52321;DHT22;38261;54.090;13.382;2023-02-23T06:25:38;3.20;99.90
52321;DHT22;38261;54.090;13.382;2023-02-23T06:27:01;3.20;99.90
52321;DHT22;38261;54.090;13.382;2023-02-23T06:28:24;3.20;99.90
52321;DHT22;38261;54.090;13.382;2023-02-23T06:29:46;3.30;99.90
52321;DHT22;38261;54.090;13.382;2023-02-23T06:31:08;3.30;99.90
52321;DHT22;38261;54.090;13.382;2023-02-23T06:32:30;3.30;99.90
52321;DHT22;38261;54.090;13.382;2023-02-23T06:33:53;3.30;99.90
52321;DHT22;38261;54.090;13.382;2023-02-23T06:35:15;3.30;99.90
52321;DHT22;38261;54.090;13.382;2023-02-23T06:36:37;3.40;99.90
52321;DHT22;38261;54.090;13.382;2023-02-23T06:38:00;3.40;99.90
52321;DHT22;38261;54.090;13.382;2023-02-23T06:39:22;3.40;99.90
52321;DHT22;38261;54.090;13.382;2023-02-23T06:40:44;3.40;99.90
52321;DHT22;38261;54.090;13.382;2023-02-23T06:42:06;3.50;99.90
52321;DHT22;38261;54.090;13.382;2023-02-23T06:43:28;3.50;99.90
52321;DHT22;38261;54.090;13.382;2023-02-23T06:44:51;3.50;99.90
52321;DHT22;38261;54.090;13.382;2023-02-23T06:46:13;3.60;99.90
52321;DHT22;38261;54.090;13.382;2023-02-23T06:47:35;3.60;99.90
52321;DHT22;38261;54.090;13.382;2023-02-23T06:48:58;3.60;99.90
52321;DHT22;38261;54.090;13.382;2023-02-23T06:50:20;3.70;99.90
52321;DHT22;38261;54.090;13.382;2023-02-23T06:51:43;3.70;99.90
52321;DHT22;38261;54.090;13.382;2023-02-23T06:53:05;3.70;99.90
52321;DHT22;38261;54.090;13.382;2023-02-23T06:54:27;3.70;99.90
52321;DHT22;38261;54.090;13.382;2023-02-23T06:55:49;3.70;99.90
52321;DHT22;38261;54.090;13.382;2023-02-23T06:57:11;3.70;99.90
52321;DHT22;38261;54.090;13.382;2023-02-23T06:58:33;3.80;99.90
52321;DHT22;38261;54.090;13.382;2023-02-23T06:59:55;3.80;99.90
52321;DHT22;38261;54.090;13.382;2023-02-23T07:01:18;3.80;99.90
52321;DHT22;38261;54.090;13.382;2023-02-23T07:02:40;3.80;99.90
52321;DHT22;38261;54.090;13.382;2023-02-23T07:04:03;3.80;99.90
52321;DHT22;38261;54.090;13.382;2023-02-23T07:05:26;3.90;99.90
52321;DHT22;38261;54.090;13.382;2023-02-23T07:06:48;3.90;99.90
52321;DHT22;38261;54.090;13.382;2023-02-23T07:08:10;3.90;99.90
52321;DHT22;38261;54.090;13.382;2023-02-23T07:09:33;4.00;99.90
52321;DHT22;38261;54.090;13.382;2023-02-23T07:10:55;4.00;99.90
52321;DHT22;38261;54.090;13.382;2023-02-23T07:12:18;4.00;99.90
52321;DHT22;38261;54.090;13.382;2023-02-23T07:13:40;4.10;99.90
52321;DHT22;38261;54.090;13.382;2023-02-23T07:15:04;4.10;99.90
52321;DHT22;38261;54.090;13.382;2023-02-23T07:16:27;4.20;99.90
52321;DHT22;38261;54.090;13.382;2023-02-23T07:17:49;4.20;99.90
52321;DHT22;38261;54.090;13.382;2023-02-23T07:19:13;4.30;99.90
52321;DHT22;38261;54.090;13.382;2023-02-23T07:20:35;4.30;99.90
52321;DHT22;38261;54.090;13.382;2023-02-23T07:21:58;4.40;99.90
52321;DHT22;38261;54.090;13.382;2023-02-23T07:23:20;4.40;99.90
52321;DHT22;38261;54.090;13.382;2023-02-23T07:24:43;4.50;99.90
52321;DHT22;38261;54.090;13.382;2023-02-23T07:26:05;4.60;99.90
52321;DHT22;38261;54.090;13.382;2023-02-23T07:27:27;4.60;99.90
52321;DHT22;38261;54.090;13.382;2023-02-23T07:28:49;4.60;99.90
52321;DHT22;38261;54.090;13.382;2023-02-23T07:30:14;4.70;99.90
52321;DHT22;38261;54.090;13.382;2023-02-23T07:31:36;4.70;99.90
52321;DHT22;38261;54.090;13.382;2023-02-23T07:32:58;4.80;99.90
52321;DHT22;38261;54.090;13.382;2023-02-23T07:34:21;4.80;99.90
52321;DHT22;38261;54.090;13.382;2023-02-23T07:35:43;4.80;99.90
52321;DHT22;38261;54.090;13.382;2023-02-23T07:37:06;4.80;99.90
52321;DHT22;38261;54.090;13.382;2023-02-23T07:38:28;4.90;99.90
52321;DHT22;38261;54.090;13.382;2023-02-23T07:39:50;4.90;99.90
52321;DHT22;38261;54.090;13.382;2023-02-23T07:41:12;4.90;99.90
52321;DHT22;38261;54.090;13.382;2023-02-23T07:42:34;4.90;99.90
52321;DHT22;38261;54.090;13.382;2023-02-23T07:43:59;4.90;99.90
52321;DHT22;38261;54.090;13.382;2023-02-23T07:45:22;4.90;99.90
52321;DHT22;38261;54.090;13.382;2023-02-23T07:46:45;5.00;99.90
52321;DHT22;38261;54.090;13.382;2023-02-23T07:48:08;5.00;99.90
52321;DHT22;38261;54.090;13.382;2023-02-23T07:49:30;5.10;99.90
52321;DHT22;38261;54.090;13.382;2023-02-23T07:50:53;5.00;99.90
52321;DHT22;38261;54.090;13.382;2023-02-23T07:52:18;5.10;99.90
52321;DHT22;38261;54.090;13.382;2023-02-23T07:53:41;5.10;99.90
52321;DHT22;38261;54.090;13.382;2023-02-23T07:55:04;5.00;99.90
52321;DHT22;38261;54.090;13.382;2023-02-23T07:56:27;5.00;99.90
52321;DHT22;38261;54.090;13.382;2023-02-23T07:57:49;5.00;99.90
52321;DHT22;38261;54.090;13.382;2023-02-23T07:59:11;5.10;99.90
52321;DHT22;38261;54.090;13.382;2023-02-23T08:00:34;5.10;99.90
52321;DHT22;38261;54.090;13.382;2023-02-23T08:01:57;5.10;99.90
52321;DHT22;38261;54.090;13.382;2023-02-23T08:03:19;5.10;99.90
52321;DHT22;38261;54.090;13.382;2023-02-23T08:04:42;5.10;99.90
52321;DHT22;38261;54.090;13.382;2023-02-23T08:06:04;5.10;99.90
52321;DHT22;38261;54.090;13.382;2023-02-23T08:07:27;5.10;99.90
52321;DHT22;38261;54.090;13.382;2023-02-23T08:08:49;5.10;99.90
52321;DHT22;38261;54.090;13.382;2023-02-23T08:10:11;5.20;99.90
52321;DHT22;38261;54.090;13.382;2023-02-23T08:11:33;5.30;99.90
52321;DHT22;38261;54.090;13.382;2023-02-23T08:12:56;5.30;99.90
52321;DHT22;38261;54.090;13.382;2023-02-23T08:14:18;5.30;99.90
52321;DHT22;38261;54.090;13.382;2023-02-23T08:15:44;5.30;99.90
52321;DHT22;38261;54.090;13.382;2023-02-23T08:17:06;5.40;99.90
52321;DHT22;38261;54.090;13.382;2023-02-23T08:18:29;5.40;99.90
52321;DHT22;38261;54.090;13.382;2023-02-23T08:19:51;5.40;99.90
52321;DHT22;38261;54.090;13.382;2023-02-23T08:21:13;5.50;99.90
52321;DHT22;38261;54.090;13.382;2023-02-23T08:22:35;5.50;99.90
52321;DHT22;38261;54.090;13.382;2023-02-23T08:24:09;5.60;99.90
52321;DHT22;38261;54.090;13.382;2023-02-23T08:25:31;5.60;99.90
52321;DHT22;38261;54.090;13.382;2023-02-23T08:26:54;5.60;99.90
52321;DHT22;38261;54.090;13.382;2023-02-23T08:28:16;5.70;99.90
52321;DHT22;38261;54.090;13.382;2023-02-23T08:29:38;5.80;99.90
52321;DHT22;38261;54.090;13.382;2023-02-23T08:31:00;5.90;99.90
52321;DHT22;38261;54.090;13.382;2023-02-23T08:32:22;6.00;99.90
52321;DHT22;38261;54.090;13.382;2023-02-23T08:33:44;6.00;99.90
52321;DHT22;38261;54.090;13.382;2023-02-23T08:35:08;6.10;99.90
52321;DHT22;38261;54.090;13.382;2023-02-23T08:36:30;6.20;99.90
52321;DHT22;38261;54.090;13.382;2023-02-23T08:37:52;6.30;99.90
52321;DHT22;38261;54.090;13.382;2023-02-23T08:39:15;6.30;99.90
52321;DHT22;38261;54.090;13.382;2023-02-23T08:40:37;6.40;99.90
52321;DHT22;38261;54.090;13.382;2023-02-23T08:41:59;6.50;99.90
52321;DHT22;38261;54.090;13.382;2023-02-23T08:43:21;6.50;99.90
52321;DHT22;38261;54.090;13.382;2023-02-23T08:44:43;6.50;99.90
52321;DHT22;38261;54.090;13.382;2023-02-23T08:46:06;6.50;99.90
52321;DHT22;38261;54.090;13.382;2023-02-23T08:47:28;6.60;99.90
52321;DHT22;38261;54.090;13.382;2023-02-23T08:48:50;6.60;99.90
52321;DHT22;38261;54.090;13.382;2023-02-23T08:50:13;6.70;99.90
52321;DHT22;38261;54.090;13.382;2023-02-23T08:51:35;6.80;99.90
52321;DHT22;38261;54.090;13.382;2023-02-23T08:52:58;6.80;99.90
52321;DHT22;38261;54.090;13.382;2023-02-23T08:54:20;6.90;99.90
52321;DHT22;38261;54.090;13.382;2023-02-23T08:55:42;7.00;99.90
52321;DHT22;38261;54.090;13.382;2023-02-23T08:57:04;6.90;99.90
52321;DHT22;38261;54.090;13.382;2023-02-23T08:58:27;6.90;99.90
52321;DHT22;38261;54.090;13.382;2023-02-23T08:59:51;7.00;99.90
52321;DHT22;38261;54.090;13.382;2023-02-23T09:01:18;7.00;99.90
52321;DHT22;38261;54.090;13.382;2023-02-23T09:02:43;7.00;99.90
52321;DHT22;38261;54.090;13.382;2023-02-23T09:04:08;7.10;99.90
52321;DHT22;38261;54.090;13.382;2023-02-23T09:05:31;7.10;99.90
52321;DHT22;38261;54.090;13.382;2023-02-23T09:06:53;7.10;99.90
52321;DHT22;38261;54.090;13.382;2023-02-23T09:08:16;7.10;99.90
52321;DHT22;38261;54.090;13.382;2023-02-23T09:09:38;7.10;99.90
52321;DHT22;38261;54.090;13.382;2023-02-23T09:11:00;7.20;99.90
52321;DHT22;38261;54.090;13.382;2023-02-23T09:12:22;7.20;99.90
52321;DHT22;38261;54.090;13.382;2023-02-23T09:13:45;7.20;99.90
52321;DHT22;38261;54.090;13.382;2023-02-23T09:15:08;7.20;99.90
52321;DHT22;38261;54.090;13.382;2023-02-23T09:16:30;7.20;99.90
52321;DHT22;38261;54.090;13.382;2023-02-23T09:17:53;7.20;99.90
52321;DHT22;38261;54.090;13.382;2023-02-23T09:19:15;7.20;99.90
52321;DHT22;38261;54.090;13.382;2023-02-23T09:20:40;7.20;99.90
52321;DHT22;38261;54.090;13.382;2023-02-23T09:22:03;7.20;99.90
52321;DHT22;38261;54.090;13.382;2023-02-23T09:23:28;7.30;99.90
52321;DHT22;38261;54.090;13.382;2023-02-23T09:24:50;7.40;99.90
52321;DHT22;38261;54.090;13.382;2023-02-23T09:26:12;7.50;99.90
52321;DHT22;38261;54.090;13.382;2023-02-23T09:27:35;7.50;99.90
52321;DHT22;38261;54.090;13.382;2023-02-23T09:28:59;7.60;99.90
52321;DHT22;38261;54.090;13.382;2023-02-23T09:30:21;7.50;99.90
52321;DHT22;38261;54.090;13.382;2023-02-23T09:31:43;7.60;99.90
52321;DHT22;38261;54.090;13.382;2023-02-23T09:33:05;7.60;99.90
52321;DHT22;38261;54.090;13.382;2023-02-23T09:34:28;7.70;99.90
52321;DHT22;38261;54.090;13.382;2023-02-23T09:35:51;7.70;99.90
52321;DHT22;38261;54.090;13.382;2023-02-23T09:37:13;7.70;99.90
52321;DHT22;38261;54.090;13.382;2023-02-23T09:38:36;7.70;99.90
52321;DHT22;38261;54.090;13.382;2023-02-23T09:39:58;7.60;99.90